Time;durP1;ratioP1;P1;durP2;ratioP2;P2;SDS_P1;SDS_P2;PMS_P1;PMS_P2;Temp;Humidity;BMP_temperature;BMP_pressure;BME280_temperature;BME280_humidity;BME280_pressure;Samples;Min_cycle;Max_cycle;Signal;HPM_P1;HPM_P2
2022/04/19 00:00:14;;;;;;;4.50;3.80;;;6.60;99.90;;;;;;4992350;28;20112;-56
2022/04/19 00:02:40;;;;;;;5.45;4.40;;;6.50;99.90;;;;;;4991323;28;20050;-57
2022/04/19 00:05:06;;;;;;;5.65;3.80;;;6.50;99.90;;;;;;4990968;28;20145;-57
2022/04/19 00:07:32;;;;;;;5.65;4.20;;;6.50;99.90;;;;;;4991946;28;20102;-55
2022/04/19 00:09:57;;;;;;;5.53;3.65;;;6.50;99.90;;;;;;4992124;28;20117;-54
2022/04/19 00:12:23;;;;;;;5.75;4.53;;;6.50;99.90;;;;;;4991908;28;20080;-57
2022/04/19 00:14:48;;;;;;;6.25;4.03;;;6.50;99.90;;;;;;4990261;28;20081;-58
2022/04/19 00:17:14;;;;;;;5.03;3.60;;;6.50;99.90;;;;;;4991448;28;20084;-59
2022/04/19 00:19:40;;;;;;;4.30;3.53;;;6.40;99.90;;;;;;4990646;28;20022;-56
2022/04/19 00:22:06;;;;;;;4.45;3.80;;;6.40;99.90;;;;;;4991336;28;20489;-57
2022/04/19 00:24:32;;;;;;;4.07;3.35;;;6.40;99.90;;;;;;4972532;28;20098;-56
2022/04/19 00:26:57;;;;;;;4.25;3.53;;;6.40;99.90;;;;;;4972439;28;20562;-57
2022/04/19 00:29:23;;;;;;;3.72;3.35;;;6.40;99.90;;;;;;4990750;28;20037;-55
2022/04/19 00:31:49;;;;;;;4.97;3.10;;;6.30;99.90;;;;;;4991850;28;20029;-57
2022/04/19 00:34:16;;;;;;;4.20;3.13;;;6.30;99.90;;;;;;4990778;28;20050;-57
2022/04/19 00:36:41;;;;;;;4.53;3.42;;;6.30;99.90;;;;;;4989438;28;20125;-56
2022/04/19 00:39:07;;;;;;;4.15;3.05;;;6.30;99.90;;;;;;4988258;28;20451;-58
2022/04/19 00:41:32;;;;;;;4.00;2.83;;;6.30;99.90;;;;;;4991420;28;20397;-55
2022/04/19 00:43:58;;;;;;;3.50;3.10;;;6.30;99.90;;;;;;4991159;28;20417;-57
2022/04/19 00:46:24;;;;;;;3.40;2.60;;;6.30;99.90;;;;;;4991464;28;20491;-58
2022/04/19 00:48:52;;;;;;;4.28;3.20;;;6.30;99.90;;;;;;4991058;28;20396;-58
2022/04/19 00:53:47;;;;;;;4.05;2.80;;;6.20;99.90;;;;;;5007531;28;20084;-53
2022/04/19 00:56:13;;;;;;;4.47;3.03;;;6.20;99.90;;;;;;5010861;28;20021;-53
2022/04/19 00:58:39;;;;;;;3.25;2.95;;;6.10;99.90;;;;;;5009043;28;20036;-54
2022/04/19 01:01:05;;;;;;;3.42;3.13;;;6.10;99.90;;;;;;5007497;28;20129;-52
2022/04/19 01:03:31;;;;;;;5.40;3.22;;;6.10;99.90;;;;;;5008371;28;20034;-54
2022/04/19 01:05:56;;;;;;;4.70;3.20;;;6.00;99.90;;;;;;5010268;28;20496;-50
2022/04/19 01:08:26;;;;;;;3.75;3.28;;;6.00;99.90;;;;;;5010885;28;20399;-56
2022/04/19 01:13:17;;;;;;;3.90;2.75;;;6.00;99.90;;;;;;5010122;28;20441;-52
2022/04/19 01:13:38;;;;;;;2.67;2.38;;;5.90;99.90;;;;;;5010522;28;20091;-56
2022/04/19 01:16:04;;;;;;;5.10;2.80;;;5.90;99.90;;;;;;5009854;28;20102;-50
2022/04/19 01:18:30;;;;;;;4.95;2.95;;;5.80;99.90;;;;;;5009504;28;20029;-54
2022/04/19 01:20:56;;;;;;;3.00;2.50;;;5.80;99.90;;;;;;5009911;28;20638;-52
2022/04/19 01:23:22;;;;;;;3.03;2.40;;;5.70;99.90;;;;;;5001229;28;20515;-52
2022/04/19 01:25:48;;;;;;;4.90;3.45;;;5.70;99.90;;;;;;5005835;28;20098;-52
2022/04/19 01:28:15;;;;;;;3.40;2.92;;;5.70;99.90;;;;;;5009984;28;20036;-53
2022/04/19 01:30:44;;;;;;;5.28;3.70;;;5.60;99.90;;;;;;5009651;28;20032;-53
2022/04/19 01:33:10;;;;;;;6.00;3.47;;;5.60;99.90;;;;;;5009544;28;20149;-53
2022/04/19 01:35:36;;;;;;;3.40;2.92;;;5.60;99.90;;;;;;5009656;28;20097;-54
2022/04/19 01:38:02;;;;;;;4.55;2.83;;;5.50;99.90;;;;;;5009799;28;20396;-52
2022/04/19 01:40:27;;;;;;;7.70;3.42;;;5.50;99.90;;;;;;5009726;28;20392;-53
2022/04/19 01:42:58;;;;;;;5.28;3.00;;;5.40;99.90;;;;;;5009508;28;20131;-54
2022/04/19 01:45:26;;;;;;;5.60;3.47;;;5.40;99.90;;;;;;5008643;28;20120;-49
2022/04/19 01:47:53;;;;;;;4.97;2.90;;;5.40;99.90;;;;;;5010126;28;20033;-52
2022/04/19 01:50:20;;;;;;;4.95;2.90;;;5.30;99.90;;;;;;5008989;28;20033;-54
2022/04/19 01:52:46;;;;;;;3.45;2.55;;;5.30;99.90;;;;;;5008267;28;20373;-50
2022/04/19 01:55:14;;;;;;;4.63;3.33;;;5.20;99.90;;;;;;5008475;28;20029;-55
2022/04/19 01:57:44;;;;;;;3.13;2.85;;;5.20;99.90;;;;;;5007863;28;20439;-51
2022/04/19 02:00:11;;;;;;;4.15;3.17;;;5.10;99.90;;;;;;5009596;28;20037;-54
2022/04/19 02:02:37;;;;;;;4.15;3.72;;;5.10;99.90;;;;;;5009595;28;20674;-53
2022/04/19 02:05:04;;;;;;;5.30;3.42;;;5.00;99.90;;;;;;5009909;28;20038;-51
2022/04/19 02:07:31;;;;;;;3.20;2.58;;;5.00;99.90;;;;;;5009012;28;20042;-51
2022/04/19 02:10:00;;;;;;;3.60;2.70;;;4.90;99.90;;;;;;5009569;28;20049;-54
2022/04/19 02:12:27;;;;;;;4.45;3.20;;;4.80;99.90;;;;;;5011972;28;20030;-56
2022/04/19 02:14:53;;;;;;;4.25;3.38;;;4.80;99.90;;;;;;5015925;28;20038;-54
2022/04/19 02:17:19;;;;;;;4.32;3.58;;;4.70;99.90;;;;;;5015495;28;20037;-54
2022/04/19 02:19:47;;;;;;;3.28;2.75;;;4.60;99.90;;;;;;5000307;28;20034;-55
2022/04/19 02:22:12;;;;;;;3.67;3.03;;;4.50;99.90;;;;;;5016086;28;20451;-56
2022/04/19 02:24:38;;;;;;;3.70;3.20;;;4.50;99.90;;;;;;5015893;28;20112;-55
2022/04/19 02:27:05;;;;;;;4.55;2.95;;;4.40;99.90;;;;;;5015976;28;20048;-52
2022/04/19 02:29:32;;;;;;;5.93;3.40;;;4.40;99.90;;;;;;5015604;28;20029;-50
2022/04/19 02:31:57;;;;;;;3.53;3.22;;;4.30;99.90;;;;;;5015960;28;20061;-53
2022/04/19 02:34:23;;;;;;;4.47;3.40;;;4.30;99.90;;;;;;5015771;28;20065;-54
2022/04/19 02:36:49;;;;;;;4.15;3.28;;;4.30;99.90;;;;;;5016035;28;20069;-50
2022/04/19 02:39:15;;;;;;;6.05;3.30;;;4.20;99.90;;;;;;5015941;28;20033;-56
2022/04/19 02:41:41;;;;;;;4.50;3.40;;;4.20;99.90;;;;;;5014475;28;20084;-53
2022/04/19 02:44:09;;;;;;;6.18;3.45;;;4.10;99.90;;;;;;5015808;28;20038;-52
2022/04/19 02:46:35;;;;;;;5.00;2.78;;;4.10;99.90;;;;;;5017070;28;20056;-49
2022/04/19 02:49:03;;;;;;;3.65;3.30;;;4.10;99.90;;;;;;5015347;28;20481;-56
2022/04/19 02:51:28;;;;;;;4.13;3.35;;;4.00;99.90;;;;;;5015237;28;20033;-53
2022/04/19 02:53:54;;;;;;;7.43;3.15;;;4.00;99.90;;;;;;5015565;28;20040;-53
2022/04/19 02:56:19;;;;;;;6.82;3.50;;;4.00;99.90;;;;;;5015054;28;20034;-52
2022/04/19 02:58:45;;;;;;;7.28;3.47;;;4.00;99.90;;;;;;5007869;28;20029;-50
2022/04/19 03:01:11;;;;;;;3.70;3.08;;;3.90;99.90;;;;;;5015615;28;20096;-54
2022/04/19 03:03:37;;;;;;;4.05;3.30;;;3.90;99.90;;;;;;5016194;28;20049;-53
2022/04/19 03:06:03;;;;;;;5.45;3.78;;;3.90;99.90;;;;;;5015728;28;20037;-53
2022/04/19 03:08:28;;;;;;;3.97;3.08;;;3.80;99.90;;;;;;5015653;28;20030;-51
2022/04/19 03:10:55;;;;;;;4.43;3.00;;;3.80;99.90;;;;;;5015267;28;20036;-51
2022/04/19 03:13:21;;;;;;;4.70;3.35;;;3.70;99.90;;;;;;5015264;28;20101;-51
2022/04/19 03:15:47;;;;;;;5.05;3.35;;;3.70;99.90;;;;;;5014169;28;20125;-53
2022/04/19 03:18:14;;;;;;;3.30;2.90;;;3.70;99.90;;;;;;5015781;28;20104;-55
2022/04/19 03:20:43;;;;;;;3.20;2.83;;;3.70;99.90;;;;;;5015326;28;20038;-54
2022/04/19 03:28:36;;;;;;;4.63;3.83;;;3.60;99.90;;;;;;5012112;28;20087;-52
2022/04/19 03:31:02;;;;;;;5.00;3.72;;;3.60;99.90;;;;;;5012282;28;20124;-51
2022/04/19 03:33:27;;;;;;;5.28;3.60;;;3.50;99.90;;;;;;5011633;28;20113;-53
2022/04/19 03:35:56;;;;;;;4.15;3.42;;;3.50;99.90;;;;;;5012094;28;20034;-53
2022/04/19 03:38:22;;;;;;;6.32;3.85;;;3.50;99.90;;;;;;5011743;28;20029;-52
2022/04/19 03:40:48;;;;;;;4.78;3.75;;;3.50;99.90;;;;;;5012533;28;20033;-53
2022/04/19 03:43:14;;;;;;;4.95;3.97;;;3.50;99.90;;;;;;5011800;28;20041;-54
2022/04/19 03:45:40;;;;;;;4.82;4.05;;;3.50;99.90;;;;;;5011923;28;20100;-51
2022/04/19 03:48:05;;;;;;;5.20;3.97;;;3.50;99.90;;;;;;5012009;28;20037;-53
2022/04/19 03:50:32;;;;;;;6.78;4.50;;;3.50;99.90;;;;;;5011304;28;20062;-52
2022/04/19 03:52:57;;;;;;;8.25;4.18;;;3.50;99.90;;;;;;5011332;28;20038;-51
2022/04/19 03:55:23;;;;;;;6.70;5.20;;;3.50;99.90;;;;;;5011515;28;20105;-53
2022/04/19 03:57:49;;;;;;;6.75;4.60;;;3.50;99.90;;;;;;5011049;28;20117;-51
2022/04/19 04:00:15;;;;;;;5.82;4.90;;;3.50;99.90;;;;;;5011766;28;20033;-53
2022/04/19 04:02:41;;;;;;;9.38;5.13;;;3.40;99.90;;;;;;5011411;28;20037;-52
2022/04/19 04:05:06;;;;;;;7.28;5.55;;;3.50;99.90;;;;;;5010995;28;20492;-51
2022/04/19 04:07:33;;;;;;;8.77;6.13;;;3.50;99.90;;;;;;5011424;28;20037;-54
2022/04/19 04:09:58;;;;;;;8.40;5.60;;;3.50;99.90;;;;;;5011307;28;20026;-50
2022/04/19 04:12:24;;;;;;;7.70;6.03;;;3.50;99.90;;;;;;5010625;28;20060;-52
2022/04/19 04:14:49;;;;;;;8.07;5.70;;;3.60;99.90;;;;;;5011284;28;20056;-52
2022/04/19 04:17:18;;;;;;;9.73;6.90;;;3.50;99.90;;;;;;5011424;28;20104;-52
2022/04/19 04:19:43;;;;;;;8.23;5.70;;;3.50;99.90;;;;;;5010761;28;20026;-53
2022/04/19 04:22:09;;;;;;;8.23;6.00;;;3.50;99.90;;;;;;5011163;28;20014;-54
2022/04/19 04:24:34;;;;;;;7.25;5.70;;;3.50;99.90;;;;;;5011044;28;20505;-55
2022/04/19 04:27:00;;;;;;;10.85;5.85;;;3.50;99.90;;;;;;5011053;28;20041;-54
2022/04/19 04:29:25;;;;;;;11.82;6.78;;;3.50;99.90;;;;;;5009304;28;20400;-51
2022/04/19 04:31:51;;;;;;;10.45;7.18;;;3.50;99.90;;;;;;5010439;28;20033;-55
2022/04/19 04:34:16;;;;;;;7.80;6.43;;;3.50;99.90;;;;;;5010241;28;20058;-52
2022/04/19 04:36:42;;;;;;;9.43;6.35;;;3.50;99.90;;;;;;5009248;28;20472;-51
2022/04/19 04:39:08;;;;;;;10.13;6.78;;;3.50;99.90;;;;;;5010874;28;20037;-53
2022/04/19 04:41:33;;;;;;;7.00;5.60;;;3.50;99.90;;;;;;5008972;28;20033;-52
2022/04/19 04:43:59;;;;;;;8.68;7.70;;;3.60;99.90;;;;;;5010672;28;20030;-51
2022/04/19 04:51:54;;;;;;;14.25;8.45;;;3.60;99.90;;;;;;5010482;28;20045;-53
2022/04/19 04:54:20;;;;;;;12.57;9.43;;;3.70;99.90;;;;;;5010695;28;20036;-54
2022/04/19 04:56:46;;;;;;;13.10;10.32;;;3.70;99.90;;;;;;5010855;28;20400;-52
2022/04/19 04:59:11;;;;;;;13.57;11.18;;;3.80;99.90;;;;;;5007739;28;20029;-55
2022/04/19 05:01:37;;;;;;;16.65;10.82;;;3.90;99.90;;;;;;5010436;28;20041;-53
2022/04/19 05:04:02;;;;;;;20.90;12.05;;;3.90;99.90;;;;;;5010594;28;20469;-54
2022/04/19 05:06:28;;;;;;;14.23;11.15;;;4.00;99.90;;;;;;5010612;28;20512;-49
2022/04/19 05:08:54;;;;;;;15.10;11.30;;;4.10;99.90;;;;;;5010728;28;20389;-52
2022/04/19 05:11:20;;;;;;;15.65;11.13;;;4.10;99.90;;;;;;5009637;28;20099;-53
2022/04/19 05:13:45;;;;;;;16.50;10.23;;;4.10;99.90;;;;;;5010127;28;20029;-51
2022/04/19 05:16:11;;;;;;;16.10;11.70;;;4.20;99.90;;;;;;5009971;28;20480;-52
2022/04/19 05:18:36;;;;;;;16.65;11.10;;;4.20;99.90;;;;;;5010487;28;20473;-56
2022/04/19 05:21:02;;;;;;;17.83;10.68;;;4.30;99.90;;;;;;5010046;28;20073;-53
2022/04/19 05:23:27;;;;;;;17.05;10.30;;;4.30;99.90;;;;;;5009978;28;20037;-54
2022/04/19 05:25:53;;;;;;;11.80;9.25;;;4.40;99.90;;;;;;5009470;28;20451;-54
2022/04/19 05:28:19;;;;;;;11.88;9.65;;;4.40;99.90;;;;;;5008634;28;20033;-54
2022/04/19 05:30:44;;;;;;;13.23;10.75;;;4.50;99.90;;;;;;5010114;28;20095;-53
2022/04/19 05:33:11;;;;;;;14.15;10.60;;;4.50;99.90;;;;;;5009909;28;20035;-55
2022/04/19 05:35:38;;;;;;;13.75;10.15;;;4.60;99.90;;;;;;5010678;28;20026;-54
2022/04/19 05:38:03;;;;;;;14.32;9.93;;;4.60;99.90;;;;;;5009991;28;20515;-53
2022/04/19 05:40:29;;;;;;;12.88;9.32;;;4.70;99.90;;;;;;5010039;28;20099;-52
2022/04/19 05:42:54;;;;;;;11.05;7.70;;;4.80;99.90;;;;;;5009473;28;20041;-54
2022/04/19 05:45:20;;;;;;;12.25;8.30;;;4.90;99.90;;;;;;5008212;28;20029;-51
2022/04/19 05:47:46;;;;;;;11.05;8.63;;;5.00;99.90;;;;;;5009446;28;20038;-52
2022/04/19 05:50:11;;;;;;;10.90;8.05;;;5.10;99.90;;;;;;5009523;28;20096;-55
2022/04/19 05:52:37;;;;;;;9.45;8.10;;;5.20;99.90;;;;;;5009731;28;20049;-54
2022/04/19 05:55:03;;;;;;;10.32;7.78;;;5.30;99.90;;;;;;5009586;28;20554;-52
2022/04/19 05:57:29;;;;;;;9.32;6.88;;;5.40;99.90;;;;;;5009096;28;20053;-52
2022/04/19 05:59:55;;;;;;;7.97;6.57;;;5.60;99.90;;;;;;5009494;28;20029;-54
2022/04/19 06:05:05;;;;;;;8.32;6.30;;;5.70;99.90;;;;;;5009377;28;20095;-53
2022/04/19 06:07:31;;;;;;;9.35;6.90;;;5.80;99.90;;;;;;5009700;28;20117;-53
2022/04/19 06:09:59;;;;;;;8.02;5.95;;;5.90;99.90;;;;;;5009706;28;20021;-52
2022/04/19 06:12:25;;;;;;;7.03;5.38;;;6.00;99.90;;;;;;5009674;28;20503;-54
2022/04/19 06:14:50;;;;;;;9.27;6.38;;;6.10;99.90;;;;;;5009800;28;20388;-54
2022/04/19 06:17:17;;;;;;;6.68;5.90;;;6.10;99.90;;;;;;5009375;28;20026;-51
2022/04/19 06:19:44;;;;;;;6.55;5.88;;;6.20;99.90;;;;;;5008972;28;20026;-55
2022/04/19 06:22:09;;;;;;;9.23;6.97;;;6.30;99.90;;;;;;5007909;28;20033;-55
2022/04/19 06:24:35;;;;;;;7.43;5.97;;;6.30;99.90;;;;;;5008013;28;20508;-53
2022/04/19 06:27:01;;;;;;;9.95;7.15;;;6.30;99.90;;;;;;5009541;28;20021;-52
2022/04/19 06:29:27;;;;;;;7.45;5.15;;;6.40;99.90;;;;;;5009237;28;20117;-51
2022/04/19 06:31:53;;;;;;;8.07;5.70;;;6.50;99.90;;;;;;5007950;28;20105;-52
2022/04/19 06:34:19;;;;;;;5.82;5.22;;;6.50;99.90;;;;;;5009132;28;20758;-52
2022/04/19 06:36:44;;;;;;;9.45;6.03;;;6.60;99.90;;;;;;5009270;28;20022;-53
2022/04/19 06:39:10;;;;;;;6.78;4.45;;;6.60;99.90;;;;;;5007049;28;20092;-53
2022/04/19 06:41:37;;;;;;;7.38;5.18;;;6.70;99.90;;;;;;5008586;28;20109;-52
2022/04/19 06:44:03;;;;;;;8.48;5.13;;;6.80;99.90;;;;;;5009283;28;20095;-52
2022/04/19 06:46:29;;;;;;;5.47;4.13;;;6.90;99.90;;;;;;5007412;28;20080;-54
2022/04/19 06:48:54;;;;;;;7.35;4.80;;;7.00;99.90;;;;;;5009053;28;20061;-54
2022/04/19 06:51:21;;;;;;;6.63;4.95;;;7.10;99.90;;;;;;5008014;28;20041;-55
2022/04/19 06:53:46;;;;;;;5.25;4.03;;;7.20;99.90;;;;;;5008867;28;20048;-52
2022/04/19 06:56:12;;;;;;;6.00;5.10;;;7.40;99.90;;;;;;5008603;28;20026;-55
2022/04/19 06:58:39;;;;;;;8.05;4.80;;;7.60;99.90;;;;;;5009555;28;20081;-53
2022/04/19 07:01:06;;;;;;;7.28;4.72;;;7.70;99.90;;;;;;5012949;28;20029;-51
2022/04/19 07:03:31;;;;;;;5.68;4.35;;;7.90;99.90;;;;;;5012985;28;20030;-52
2022/04/19 07:05:57;;;;;;;5.18;4.68;;;8.00;99.90;;;;;;5012732;28;20480;-54
2022/04/19 07:08:23;;;;;;;5.25;4.38;;;8.20;99.90;;;;;;5012803;28;20026;-54
2022/04/19 07:10:48;;;;;;;7.25;4.95;;;8.40;99.90;;;;;;5012549;28;20492;-54
2022/04/19 07:13:14;;;;;;;6.95;4.88;;;8.70;99.90;;;;;;5012582;28;20469;-53
2022/04/19 07:15:40;;;;;;;6.50;4.32;;;8.70;99.90;;;;;;5012563;28;20041;-55
2022/04/19 07:18:05;;;;;;;5.20;4.70;;;8.90;99.90;;;;;;5012756;28;20026;-54
2022/04/19 07:28:43;;;;;;;6.32;4.70;;;9.70;99.90;;;;;;5012643;28;20045;-50
2022/04/19 07:31:09;;;;;;;4.47;3.80;;;9.70;99.90;;;;;;5012407;28;20030;-55
2022/04/19 07:33:37;;;;;;;5.45;4.28;;;9.60;99.90;;;;;;5012560;28;20030;-55
2022/04/19 07:36:04;;;;;;;4.38;3.42;;;9.50;99.90;;;;;;5012510;28;20152;-54
2022/04/19 07:38:30;;;;;;;4.32;3.53;;;9.50;99.90;;;;;;5012273;28;20100;-53
2022/04/19 07:40:56;;;;;;;4.30;3.30;;;9.50;99.90;;;;;;5012137;28;20039;-55
2022/04/19 07:43:22;;;;;;;5.68;3.72;;;9.60;99.90;;;;;;5012174;28;20026;-51
2022/04/19 07:45:47;;;;;;;5.88;3.53;;;9.80;99.90;;;;;;5011957;28;20041;-52
2022/04/19 07:48:13;;;;;;;5.00;3.47;;;10.10;99.90;;;;;;5012110;28;20032;-56
2022/04/19 07:50:39;;;;;;;4.57;3.75;;;10.30;99.90;;;;;;4993785;28;20026;-53
2022/04/19 07:53:05;;;;;;;4.85;3.72;;;10.40;99.90;;;;;;5011563;28;20042;-53
2022/04/19 07:55:31;;;;;;;5.25;3.83;;;10.50;99.90;;;;;;5011644;28;20061;-52
2022/04/19 07:57:57;;;;;;;4.90;3.70;;;10.60;99.90;;;;;;5011809;28;20429;-55
2022/04/19 08:00:27;;;;;;;4.60;3.50;;;10.90;99.90;;;;;;5011406;28;20425;-55
2022/04/19 08:02:52;;;;;;;4.57;3.03;;;10.80;99.90;;;;;;5011183;28;20038;-52
2022/04/19 08:05:18;;;;;;;4.22;3.17;;;11.00;99.90;;;;;;5011006;28;20022;-54
2022/04/19 08:07:44;;;;;;;3.38;2.90;;;11.50;99.90;;;;;;5012027;28;20049;-55
2022/04/19 08:10:09;;;;;;;4.07;2.58;;;11.70;99.90;;;;;;5010974;28;20030;-55
2022/04/19 08:12:35;;;;;;;2.53;2.20;;;12.00;99.90;;;;;;5011384;28;20100;-53
2022/04/19 08:15:01;;;;;;;2.80;1.98;;;12.20;97.80;;;;;;5011076;28;20032;-52
2022/04/19 08:17:26;;;;;;;7.03;2.05;;;12.50;96.20;;;;;;5011250;28;20029;-54
2022/04/19 08:19:54;;;;;;;2.63;2.03;;;12.60;95.20;;;;;;5010999;28;20026;-52
2022/04/19 08:22:21;;;;;;;4.50;2.25;;;12.70;96.20;;;;;;5011348;28;20117;-52
2022/04/19 08:24:47;;;;;;;4.30;2.28;;;12.90;95.40;;;;;;5010329;28;20037;-53
2022/04/19 08:27:15;;;;;;;5.65;2.75;;;13.20;95.40;;;;;;5010606;28;20461;-51
2022/04/19 08:29:43;;;;;;;4.20;2.38;;;13.40;94.10;;;;;;5011093;28;20032;-53
2022/04/19 08:32:08;;;;;;;3.95;2.47;;;13.00;93.30;;;;;;5010460;28;20022;-54
2022/04/19 08:34:34;;;;;;;4.03;2.00;;;12.90;94.20;;;;;;5010376;28;20029;-56
2022/04/19 08:37:00;;;;;;;2.53;2.33;;;13.00;94.00;;;;;;5010718;28;20030;-53
2022/04/19 08:39:25;;;;;;;3.30;2.35;;;13.30;96.30;;;;;;5010608;28;20025;-56
2022/04/19 08:41:51;;;;;;;5.50;2.47;;;13.60;93.40;;;;;;5010209;28;20110;-56
2022/04/19 08:44:17;;;;;;;3.33;2.80;;;13.50;93.00;;;;;;5010281;28;20141;-52
2022/04/19 08:46:43;;;;;;;3.00;2.72;;;13.40;94.80;;;;;;5010631;28;20037;-52
2022/04/19 08:49:09;;;;;;;5.32;2.63;;;13.70;94.00;;;;;;5010265;28;20033;-53
2022/04/19 08:51:38;;;;;;;3.05;2.63;;;14.00;93.90;;;;;;5009758;28;20108;-52
2022/04/19 08:59:32;;;;;;;4.63;3.10;;;14.10;93.50;;;;;;5010133;28;20643;-56
2022/04/19 09:02:02;;;;;;;3.28;2.92;;;14.20;93.50;;;;;;5010453;28;20026;-55
2022/04/19 09:04:27;;;;;;;4.70;3.25;;;14.30;92.40;;;;;;5010221;28;20071;-54
2022/04/19 09:06:57;;;;;;;5.03;2.65;;;14.20;91.10;;;;;;5010812;28;20026;-53
2022/04/19 09:09:25;;;;;;;6.90;3.47;;;14.30;91.60;;;;;;5010296;28;20080;-57
2022/04/19 09:11:52;;;;;;;3.90;3.30;;;14.40;91.20;;;;;;5009053;28;20117;-56
2022/04/19 09:14:18;;;;;;;3.67;2.67;;;14.30;91.00;;;;;;5010310;28;20033;-58
2022/04/19 09:16:45;;;;;;;13.35;3.42;;;14.30;91.30;;;;;;5010106;28;20121;-58
2022/04/19 09:19:27;;;;;;;3.63;3.17;;;14.50;91.80;;;;;;5010574;28;20030;-51
2022/04/19 09:21:52;;;;;;;3.22;2.75;;;14.70;91.50;;;;;;5008744;28;20030;-56
2022/04/19 09:24:20;;;;;;;4.95;2.83;;;14.80;91.80;;;;;;5007467;28;20088;-54
2022/04/19 09:26:48;;;;;;;4.72;3.20;;;15.20;91.40;;;;;;5010402;28;20060;-56
2022/04/19 09:29:18;;;;;;;4.22;3.35;;;15.50;90.10;;;;;;5010546;28;20026;-57
2022/04/19 09:31:43;;;;;;;7.18;4.20;;;15.40;88.60;;;;;;5009604;28;20500;-54
2022/04/19 09:34:10;;;;;;;5.93;4.40;;;15.20;90.00;;;;;;5010097;28;20068;-58
2022/04/19 09:36:37;;;;;;;6.30;3.90;;;15.20;88.10;;;;;;5009631;28;20053;-58
2022/04/19 09:39:25;;;;;;;5.07;4.10;;;15.10;90.60;;;;;;5010156;28;20097;-54
2022/04/19 09:42:00;;;;;;;6.18;4.18;;;15.20;90.20;;;;;;5009853;28;20112;-55
2022/04/19 09:44:26;;;;;;;4.70;3.95;;;15.40;90.60;;;;;;5009635;28;20088;-54
2022/04/19 09:47:02;;;;;;;4.80;3.67;;;15.70;88.90;;;;;;5008743;28;20046;-56
2022/04/19 09:49:47;;;;;;;4.25;3.40;;;15.90;88.00;;;;;;5009746;28;20025;-55
2022/04/19 09:52:34;;;;;;;11.82;5.05;;;16.10;87.00;;;;;;5008526;28;20034;-51
2022/04/19 09:55:07;;;;;;;6.28;4.32;;;16.20;86.10;;;;;;4999481;28;20074;-54
2022/04/19 09:57:34;;;;;;;6.20;3.53;;;16.20;84.50;;;;;;5010074;28;20057;-58
2022/04/19 10:00:00;;;;;;;4.82;3.67;;;16.10;84.10;;;;;;5009610;28;20026;-57
2022/04/19 10:08:11;;;;;;;5.47;4.10;;;16.40;80.40;;;;;;5010063;28;20029;-58
2022/04/19 10:10:37;;;;;;;6.03;4.45;;;16.50;79.70;;;;;;5009656;28;20477;-57
2022/04/19 10:13:03;;;;;;;6.72;4.15;;;16.40;78.00;;;;;;5009408;28;20053;-55
2022/04/19 10:15:32;;;;;;;6.55;4.10;;;16.40;79.60;;;;;;5009465;28;20540;-57
2022/04/19 10:17:57;;;;;;;7.18;4.28;;;16.40;75.00;;;;;;5009694;28;20029;-54
2022/04/19 10:20:32;;;;;;;5.78;4.30;;;16.00;76.80;;;;;;5009514;28;20037;-54
2022/04/19 10:23:05;;;;;;;5.72;3.67;;;15.90;72.80;;;;;;5009320;28;20026;-54
2022/04/19 10:25:40;;;;;;;5.15;3.63;;;15.90;73.00;;;;;;5008948;28;20026;-56
2022/04/19 10:28:07;;;;;;;6.03;3.38;;;15.80;71.90;;;;;;5009549;28;20030;-54
2022/04/19 10:30:35;;;;;;;6.97;3.47;;;15.80;72.20;;;;;;4998445;28;20053;-54
2022/04/19 10:33:01;;;;;;;5.32;3.40;;;15.60;69.40;;;;;;5010718;28;20084;-54
2022/04/19 10:35:27;;;;;;;6.20;3.38;;;15.80;71.80;;;;;;5013212;28;20026;-56
2022/04/19 10:38:20;;;;;;;5.10;3.22;;;15.60;69.80;;;;;;5013767;28;20118;-58
2022/04/19 10:40:50;;;;;;;5.03;3.10;;;15.50;68.40;;;;;;5013472;28;20389;-58
2022/04/19 10:43:16;;;;;;;7.63;3.75;;;15.40;70.50;;;;;;5013527;28;20030;-58
2022/04/19 10:45:46;;;;;;;5.30;3.42;;;15.40;72.40;;;;;;5012761;28;20037;-56
2022/04/19 10:48:14;;;;;;;6.03;2.67;;;15.50;70.30;;;;;;5011972;28;20029;-58
2022/04/19 10:50:40;;;;;;;5.45;3.03;;;15.50;72.50;;;;;;5013085;28;20021;-55
2022/04/19 10:53:07;;;;;;;10.52;2.65;;;15.40;72.60;;;;;;5012715;28;20457;-57
2022/04/19 10:56:01;;;;;;;9.02;3.00;;;15.50;69.60;;;;;;5012971;28;20456;-55
2022/04/19 10:58:38;;;;;;;4.50;2.47;;;15.60;70.00;;;;;;5012631;28;20061;-55
2022/04/19 11:01:05;;;;;;;3.90;2.45;;;15.60;71.30;;;;;;5011814;28;20080;-57
2022/04/19 11:03:35;;;;;;;5.32;3.20;;;15.60;71.00;;;;;;5012400;28;20026;-53
2022/04/19 11:06:02;;;;;;;6.65;2.00;;;15.50;72.20;;;;;;5012888;28;20030;-55
2022/04/19 11:08:31;;;;;;;3.70;2.15;;;15.60;74.00;;;;;;5012897;28;20033;-53
2022/04/19 11:11:01;;;;;;;3.45;2.25;;;15.60;72.40;;;;;;5011593;28;20033;-57
2022/04/19 11:13:40;;;;;;;3.38;2.22;;;15.50;71.70;;;;;;5011331;28;20587;-59
2022/04/19 11:16:11;;;;;;;4.72;2.47;;;15.40;72.90;;;;;;5013016;28;20469;-55
2022/04/19 11:18:37;;;;;;;3.35;1.75;;;15.30;74.50;;;;;;5012563;28;20022;-55
2022/04/19 11:21:05;;;;;;;3.88;1.70;;;15.50;73.70;;;;;;5012989;28;20030;-54
2022/04/19 11:23:45;;;;;;;2.25;1.75;;;15.70;74.20;;;;;;5012161;28;20057;-56
2022/04/19 11:26:29;;;;;;;3.85;1.90;;;15.60;71.80;;;;;;5012544;28;20119;-54
2022/04/19 11:29:10;;;;;;;2.80;1.40;;;15.50;73.20;;;;;;5012450;28;20026;-55
2022/04/19 11:31:55;;;;;;;2.83;1.70;;;15.50;74.10;;;;;;5012023;28;20048;-54
2022/04/19 11:34:21;;;;;;;2.03;1.50;;;15.70;74.50;;;;;;5001783;28;20092;-58
2022/04/19 11:36:47;;;;;;;2.85;1.35;;;15.70;72.20;;;;;;5012326;28;20029;-55
2022/04/19 11:46:44;;;;;;;3.22;1.50;;;15.60;74.20;;;;;;5012222;28;20017;-57
2022/04/19 11:47:47;;;;;;;2.85;1.63;;;15.20;72.30;;;;;;5012106;28;20048;-58
2022/04/19 11:50:32;;;;;;;1.85;0.85;;;15.20;72.70;;;;;;5011766;28;20530;-56
2022/04/19 11:52:59;;;;;;;1.92;1.80;;;15.20;71.50;;;;;;5011450;28;20080;-51
2022/04/19 11:55:27;;;;;;;3.50;1.20;;;15.20;73.40;;;;;;5012297;28;20061;-53
2022/04/19 11:58:06;;;;;;;2.50;1.30;;;15.20;73.40;;;;;;5011924;28;20087;-52
2022/04/19 12:00:33;;;;;;;4.07;1.30;;;15.40;73.70;;;;;;5011931;28;20022;-57
2022/04/19 12:03:21;;;;;;;1.40;1.10;;;15.60;71.20;;;;;;4994258;28;20037;-56
2022/04/19 12:05:47;;;;;;;1.13;0.90;;;15.60;70.90;;;;;;5011603;28;20492;-56
2022/04/19 12:08:13;;;;;;;2.80;1.00;;;15.60;71.40;;;;;;5011686;28;20040;-56
2022/04/19 12:10:40;;;;;;;1.10;0.90;;;15.60;71.60;;;;;;5011487;28;20034;-52
2022/04/19 12:13:05;;;;;;;1.95;0.80;;;15.70;69.60;;;;;;5011223;28;20103;-57
2022/04/19 12:15:41;;;;;;;0.80;0.80;;;15.60;68.40;;;;;;5011170;28;20486;-52
2022/04/19 12:18:07;;;;;;;0.95;0.70;;;15.40;69.00;;;;;;5011532;28;20052;-50
2022/04/19 12:20:45;;;;;;;3.17;0.88;;;15.60;67.00;;;;;;5011218;28;20057;-53
2022/04/19 12:23:20;;;;;;;1.75;0.80;;;15.80;66.20;;;;;;5011285;28;20384;-54
2022/04/19 12:26:06;;;;;;;0.90;0.68;;;15.80;64.70;;;;;;5010661;28;20387;-55
2022/04/19 12:28:41;;;;;;;1.77;0.70;;;15.90;64.70;;;;;;5009958;28;20113;-52
2022/04/19 12:31:06;;;;;;;1.00;0.45;;;15.90;62.10;;;;;;5010812;28;20026;-55
2022/04/19 12:33:34;;;;;;;1.83;0.63;;;15.80;62.40;;;;;;5011014;28;20365;-55
2022/04/19 12:36:00;;;;;;;0.35;0.35;;;15.70;61.30;;;;;;5008254;28;20654;-56
2022/04/19 12:38:31;;;;;;;1.10;0.52;;;15.80;62.50;;;;;;5010742;28;20022;-51
2022/04/19 12:40:56;;;;;;;2.65;0.47;;;15.90;62.00;;;;;;5010195;28;20548;-52
2022/04/19 12:43:46;;;;;;;0.30;0.30;;;16.10;60.40;;;;;;5025177;28;20201;-52
2022/04/19 12:46:15;;;;;;;2.67;0.63;;;16.20;60.70;;;;;;5010518;28;20030;-54
2022/04/19 12:48:51;;;;;;;1.15;0.30;;;16.30;59.20;;;;;;4995788;28;20026;-56
2022/04/19 12:51:21;;;;;;;;;;;16.30;56.60;;;;;;4997648;28;20025;-54
2022/04/19 12:54:00;;;;;;;0.40;0.40;;;16.10;54.10;;;;;;5010343;28;19918;-55
2022/04/19 12:56:26;;;;;;;0.75;0.68;;;16.20;55.10;;;;;;5021856;22;20058;-58
2022/04/19 12:58:51;;;;;;;0.75;0.32;;;16.20;52.00;;;;;;5009816;28;20030;-58
2022/04/19 13:01:17;;;;;;;1.15;0.43;;;16.10;51.80;;;;;;5010552;28;20412;-55
2022/04/19 13:03:42;;;;;;;0.73;0.70;;;16.00;50.70;;;;;;5010630;28;20033;-57
2022/04/19 13:14:20;;;;;;;0.60;0.50;;;15.80;47.50;;;;;;5010961;28;20395;-57
2022/04/19 13:16:46;;;;;;;0.55;0.50;;;15.50;48.60;;;;;;5010357;28;20022;-58
2022/04/19 13:19:13;;;;;;;0.60;0.60;;;15.20;48.40;;;;;;5010626;28;20022;-56
2022/04/19 13:21:39;;;;;;;1.45;0.40;;;15.30;52.10;;;;;;5010158;28;20022;-58
2022/04/19 13:24:06;;;;;;;2.65;0.65;;;15.60;51.10;;;;;;5010429;28;20175;-57
2022/04/19 13:26:31;;;;;;;0.43;0.43;;;15.80;48.50;;;;;;5009614;28;20053;-59
2022/04/19 13:28:57;;;;;;;0.40;0.30;;;15.80;48.50;;;;;;5010512;28;20029;-59
2022/04/19 13:31:23;;;;;;;1.55;0.40;;;15.80;47.30;;;;;;5009962;28;20492;-56
2022/04/19 13:33:50;;;;;;;0.65;0.32;;;15.80;47.90;;;;;;5010336;28;20492;-57
2022/04/19 13:36:16;;;;;;;1.65;1.20;;;15.90;48.00;;;;;;5009804;28;20053;-54
2022/04/19 13:38:41;;;;;;;0.57;0.40;;;15.90;47.50;;;;;;5010197;28;20057;-56
2022/04/19 13:41:07;;;;;;;0.80;0.57;;;15.90;47.00;;;;;;5009801;28;20099;-58